sensor_id;sensor_type;location;lat;lon;timestamp;pressure;altitude;pressure_sealevel;temperature;humidity
60583;BME280;46415;47.536;19.066;2023-02-28T00:01:23;101543.13;;;0.10;75.19
60583;BME280;46415;47.536;19.066;2023-02-28T00:04:26;101543.06;;;0.06;75.10
60583;BME280;46415;47.536;19.066;2023-02-28T00:07:30;101537.91;;;0.04;75.16
60583;BME280;46415;47.536;19.066;2023-02-28T00:10:33;101539.78;;;0.14;74.34
60583;BME280;46415;47.536;19.066;2023-02-28T00:13:38;101546.31;;;-0.02;75.03
60583;BME280;46415;47.536;19.066;2023-02-28T00:16:41;101553.88;;;-0.08;76.18
60583;BME280;46415;47.536;19.066;2023-02-28T00:19:44;101557.09;;;-0.16;76.51
60583;BME280;46415;47.536;19.066;2023-02-28T00:22:50;101562.94;;;-0.22;76.61
60583;BME280;46415;47.536;19.066;2023-02-28T00:25:54;101564.59;;;-0.25;76.57
60583;BME280;46415;47.536;19.066;2023-02-28T00:28:57;101567.16;;;-0.24;77.04
60583;BME280;46415;47.536;19.066;2023-02-28T00:32:00;101578.34;;;-0.17;76.14
60583;BME280;46415;47.536;19.066;2023-02-28T00:35:04;101566.44;;;-0.18;76.74
60583;BME280;46415;47.536;19.066;2023-02-28T00:38:07;101566.41;;;-0.20;77.71
60583;BME280;46415;47.536;19.066;2023-02-28T00:41:10;101573.97;;;-0.23;78.22
60583;BME280;46415;47.536;19.066;2023-02-28T00:44:12;101568.87;;;-0.24;78.67
60583;BME280;46415;47.536;19.066;2023-02-28T00:47:15;101581.69;;;-0.20;78.48
60583;BME280;46415;47.536;19.066;2023-02-28T00:50:19;101575.81;;;-0.16;78.80
60583;BME280;46415;47.536;19.066;2023-02-28T00:53:22;101582.81;;;-0.06;78.56
60583;BME280;46415;47.536;19.066;2023-02-28T00:56:25;101578.56;;;-0.05;78.48
60583;BME280;46415;47.536;19.066;2023-02-28T00:59:28;101571.22;;;0.10;77.39
60583;BME280;46415;47.536;19.066;2023-02-28T01:02:31;101579.63;;;0.05;77.92
60583;BME280;46415;47.536;19.066;2023-02-28T01:05:34;101580.62;;;0.14;77.89
60583;BME280;46415;47.536;19.066;2023-02-28T01:08:36;101584.03;;;0.15;78.31
60583;BME280;46415;47.536;19.066;2023-02-28T01:11:39;101576.41;;;0.16;77.33
60583;BME280;46415;47.536;19.066;2023-02-28T01:14:44;101578.97;;;0.16;76.74
60583;BME280;46415;47.536;19.066;2023-02-28T01:17:47;101578.94;;;0.15;76.56
60583;BME280;46415;47.536;19.066;2023-02-28T01:20:50;101582.47;;;0.21;76.31
60583;BME280;46415;47.536;19.066;2023-02-28T01:23:56;101587.53;;;0.20;75.87
60583;BME280;46415;47.536;19.066;2023-02-28T01:26:59;101587.59;;;0.24;76.21
60583;BME280;46415;47.536;19.066;2023-02-28T01:30:02;101583.41;;;0.26;76.25
60583;BME280;46415;47.536;19.066;2023-02-28T01:33:05;101579.28;;;0.36;75.86
60583;BME280;46415;47.536;19.066;2023-02-28T01:36:17;101586.97;;;0.36;76.79
60583;BME280;46415;47.536;19.066;2023-02-28T01:39:20;101584.50;;;0.40;77.60
60583;BME280;46415;47.536;19.066;2023-02-28T01:42:25;101585.47;;;0.47;77.96
60583;BME280;46415;47.536;19.066;2023-02-28T01:45:31;101584.44;;;0.37;78.51
60583;BME280;46415;47.536;19.066;2023-02-28T01:48:37;101576.91;;;0.45;78.38
60583;BME280;46415;47.536;19.066;2023-02-28T01:51:52;101584.62;;;0.48;78.03
60583;BME280;46415;47.536;19.066;2023-02-28T01:54:59;101579.56;;;0.51;78.76
60583;BME280;46415;47.536;19.066;2023-02-28T01:58:06;101571.81;;;0.45;78.18
60583;BME280;46415;47.536;19.066;2023-02-28T02:01:09;101579.41;;;0.40;77.99
60583;BME280;46415;47.536;19.066;2023-02-28T02:04:27;101573.44;;;0.40;77.76
60583;BME280;46415;47.536;19.066;2023-02-28T02:07:37;101578.66;;;0.46;77.83
60583;BME280;46415;47.536;19.066;2023-02-28T02:10:46;101567.47;;;0.39;78.64
60583;BME280;46415;47.536;19.066;2023-02-28T02:14:06;101568.41;;;0.45;79.50
60583;BME280;46415;47.536;19.066;2023-02-28T02:17:38;101575.16;;;0.43;80.19
60583;BME280;46415;47.536;19.066;2023-02-28T02:24:16;101572.59;;;0.43;80.10
60583;BME280;46415;47.536;19.066;2023-02-28T02:27:42;101566.63;;;0.42;80.04
60583;BME280;46415;47.536;19.066;2023-02-28T02:31:04;101568.44;;;0.46;79.25
60583;BME280;46415;47.536;19.066;2023-02-28T02:34:34;101567.66;;;0.52;79.10
60583;BME280;46415;47.536;19.066;2023-02-28T02:44:46;101567.28;;;0.30;78.03
60583;BME280;46415;47.536;19.066;2023-02-28T02:47:51;101570.94;;;0.45;77.62
60583;BME280;46415;47.536;19.066;2023-02-28T02:50:57;101575.84;;;0.32;78.10
60583;BME280;46415;47.536;19.066;2023-02-28T02:54:08;101575.94;;;0.38;77.76
60583;BME280;46415;47.536;19.066;2023-02-28T02:57:23;101573.38;;;0.35;78.90
60583;BME280;46415;47.536;19.066;2023-02-28T03:00:35;101577.72;;;0.43;78.24
60583;BME280;46415;47.536;19.066;2023-02-28T03:03:41;101572.59;;;0.43;78.71
60583;BME280;46415;47.536;19.066;2023-02-28T03:06:43;101570.06;;;0.43;79.47
60583;BME280;46415;47.536;19.066;2023-02-28T03:09:54;101580.22;;;0.39;78.44
60583;BME280;46415;47.536;19.066;2023-02-28T03:13:08;101569.19;;;0.40;78.69
60583;BME280;46415;47.536;19.066;2023-02-28T03:23:03;101586.22;;;0.43;77.83
60583;BME280;46415;47.536;19.066;2023-02-28T03:26:19;101576.84;;;0.42;78.10
60583;BME280;46415;47.536;19.066;2023-02-28T03:32:42;101585.44;;;0.46;78.12
60583;BME280;46415;47.536;19.066;2023-02-28T03:35:59;101588.22;;;0.59;77.51
60583;BME280;46415;47.536;19.066;2023-02-28T03:39:06;101584.66;;;0.50;78.54
60583;BME280;46415;47.536;19.066;2023-02-28T03:42:15;101586.34;;;0.49;79.12
60583;BME280;46415;47.536;19.066;2023-02-28T03:45:32;101579.59;;;0.53;79.82
60583;BME280;46415;47.536;19.066;2023-02-28T03:48:43;101586.34;;;0.48;78.05
60583;BME280;46415;47.536;19.066;2023-02-28T03:51:49;101583.09;;;0.58;77.85
60583;BME280;46415;47.536;19.066;2023-02-28T03:54:56;101581.38;;;0.57;77.42
60583;BME280;46415;47.536;19.066;2023-02-28T03:58:12;101580.41;;;0.50;75.89
60583;BME280;46415;47.536;19.066;2023-02-28T04:01:41;101584.69;;;0.51;76.74
60583;BME280;46415;47.536;19.066;2023-02-28T04:04:45;101580.50;;;0.56;75.98
60583;BME280;46415;47.536;19.066;2023-02-28T04:07:51;101586.47;;;0.57;74.85
60583;BME280;46415;47.536;19.066;2023-02-28T04:14:29;101574.56;;;0.57;73.37
60583;BME280;46415;47.536;19.066;2023-02-28T04:17:32;101578.87;;;0.61;72.23
60583;BME280;46415;47.536;19.066;2023-02-28T04:20:34;101574.75;;;0.69;72.29
60583;BME280;46415;47.536;19.066;2023-02-28T04:23:37;101578.12;;;0.67;71.75
60583;BME280;46415;47.536;19.066;2023-02-28T04:26:43;101574.72;;;0.68;70.96
60583;BME280;46415;47.536;19.066;2023-02-28T04:29:46;101574.62;;;0.62;70.49
60583;BME280;46415;47.536;19.066;2023-02-28T04:32:49;101570.44;;;0.67;69.74
60583;BME280;46415;47.536;19.066;2023-02-28T04:36:03;101569.63;;;0.68;69.10
60583;BME280;46415;47.536;19.066;2023-02-28T04:39:06;101569.66;;;0.69;70.11
60583;BME280;46415;47.536;19.066;2023-02-28T04:42:10;101567.81;;;0.59;69.86
60583;BME280;46415;47.536;19.066;2023-02-28T04:45:13;101572.91;;;0.61;71.18
60583;BME280;46415;47.536;19.066;2023-02-28T04:48:16;101562.78;;;0.65;70.49
60583;BME280;46415;47.536;19.066;2023-02-28T04:51:19;101567.78;;;0.58;69.36
60583;BME280;46415;47.536;19.066;2023-02-28T04:54:22;101568.50;;;0.51;69.14
60583;BME280;46415;47.536;19.066;2023-02-28T04:57:25;101565.97;;;0.54;69.25
60583;BME280;46415;47.536;19.066;2023-02-28T05:00:29;101565.25;;;0.59;69.30
60583;BME280;46415;47.536;19.066;2023-02-28T05:03:32;101565.19;;;0.56;69.00
60583;BME280;46415;47.536;19.066;2023-02-28T05:06:35;101563.59;;;0.63;69.25
60583;BME280;46415;47.536;19.066;2023-02-28T05:09:38;101566.84;;;0.54;69.42
60583;BME280;46415;47.536;19.066;2023-02-28T05:12:40;101566.94;;;0.60;69.72
60583;BME280;46415;47.536;19.066;2023-02-28T05:15:43;101568.63;;;0.58;68.38
60583;BME280;46415;47.536;19.066;2023-02-28T05:18:46;101570.28;;;0.56;68.73
60583;BME280;46415;47.536;19.066;2023-02-28T05:21:52;101575.44;;;0.58;68.75
60583;BME280;46415;47.536;19.066;2023-02-28T05:24:55;101577.06;;;0.54;67.73
60583;BME280;46415;47.536;19.066;2023-02-28T05:27:58;101576.28;;;0.58;68.45
60583;BME280;46415;47.536;19.066;2023-02-28T05:31:01;101583.09;;;0.58;68.50
60583;BME280;46415;47.536;19.066;2023-02-28T05:34:04;101582.47;;;0.71;67.75
60583;BME280;46415;47.536;19.066;2023-02-28T05:37:14;101578.19;;;0.70;67.85
60583;BME280;46415;47.536;19.066;2023-02-28T05:40:17;101590.94;;;0.70;67.06
60583;BME280;46415;47.536;19.066;2023-02-28T05:43:22;101591.75;;;0.67;67.91
60583;BME280;46415;47.536;19.066;2023-02-28T05:46:24;101599.56;;;0.76;66.39
60583;BME280;46415;47.536;19.066;2023-02-28T05:49:28;101582.56;;;0.78;66.16
60583;BME280;46415;47.536;19.066;2023-02-28T05:52:31;101590.28;;;0.81;66.13
60583;BME280;46415;47.536;19.066;2023-02-28T05:55:34;101592.91;;;0.86;67.10
60583;BME280;46415;47.536;19.066;2023-02-28T05:58:38;101596.37;;;0.91;65.20
60583;BME280;46415;47.536;19.066;2023-02-28T06:01:42;101593.88;;;0.96;65.42
60583;BME280;46415;47.536;19.066;2023-02-28T06:04:50;101602.44;;;0.98;65.44
60583;BME280;46415;47.536;19.066;2023-02-28T06:07:53;101605.81;;;0.94;63.80
60583;BME280;46415;47.536;19.066;2023-02-28T06:10:56;101599.13;;;1.03;64.37
60583;BME280;46415;47.536;19.066;2023-02-28T06:14:00;101601.66;;;1.02;63.92
60583;BME280;46415;47.536;19.066;2023-02-28T06:17:03;101608.50;;;1.04;64.55
60583;BME280;46415;47.536;19.066;2023-02-28T06:20:08;101602.63;;;1.10;64.23
60583;BME280;46415;47.536;19.066;2023-02-28T06:23:12;101606.09;;;1.15;65.23
60583;BME280;46415;47.536;19.066;2023-02-28T06:26:15;101609.69;;;1.25;65.58
60583;BME280;46415;47.536;19.066;2023-02-28T06:29:18;101614.72;;;1.21;65.75
60583;BME280;46415;47.536;19.066;2023-02-28T06:32:21;101612.31;;;1.32;64.34
60583;BME280;46415;47.536;19.066;2023-02-28T06:35:24;101619.16;;;1.33;65.23
60583;BME280;46415;47.536;19.066;2023-02-28T06:38:27;101625.19;;;1.37;64.66
60583;BME280;46415;47.536;19.066;2023-02-28T06:41:30;101622.00;;;1.53;63.78
60583;BME280;46415;47.536;19.066;2023-02-28T06:44:53;101617.03;;;1.65;63.22
60583;BME280;46415;47.536;19.066;2023-02-28T06:47:56;101617.00;;;1.63;62.40
60583;BME280;46415;47.536;19.066;2023-02-28T06:51:07;101629.84;;;1.67;62.40
60583;BME280;46415;47.536;19.066;2023-02-28T06:54:11;101633.34;;;1.75;62.40
60583;BME280;46415;47.536;19.066;2023-02-28T06:57:14;101634.41;;;1.90;60.71
60583;BME280;46415;47.536;19.066;2023-02-28T07:00:18;101636.25;;;2.03;59.71
60583;BME280;46415;47.536;19.066;2023-02-28T07:03:22;101622.44;;;1.89;59.20
60583;BME280;46415;47.536;19.066;2023-02-28T07:06:26;101626.00;;;2.03;58.47
60583;BME280;46415;47.536;19.066;2023-02-28T07:09:29;101631.19;;;2.10;58.43
60583;BME280;46415;47.536;19.066;2023-02-28T07:12:33;101629.72;;;2.30;57.81
60583;BME280;46415;47.536;19.066;2023-02-28T07:15:36;101634.97;;;2.45;57.34
60583;BME280;46415;47.536;19.066;2023-02-28T07:18:44;101638.34;;;2.38;56.69
60583;BME280;46415;47.536;19.066;2023-02-28T07:21:46;101646.97;;;2.47;57.04
60583;BME280;46415;47.536;19.066;2023-02-28T07:24:49;101642.25;;;2.92;56.10
60583;BME280;46415;47.536;19.066;2023-02-28T07:27:53;101649.00;;;2.83;55.23
60583;BME280;46415;47.536;19.066;2023-02-28T07:30:56;101650.69;;;2.81;56.26
60583;BME280;46415;47.536;19.066;2023-02-28T07:33:59;101655.03;;;2.90;55.99
60583;BME280;46415;47.536;19.066;2023-02-28T07:37:02;101654.16;;;2.86;55.34
60583;BME280;46415;47.536;19.066;2023-02-28T07:40:08;101650.66;;;2.74;55.77
60583;BME280;46415;47.536;19.066;2023-02-28T07:43:12;101652.34;;;2.73;54.81
60583;BME280;46415;47.536;19.066;2023-02-28T07:46:16;101654.09;;;2.79;54.81
60583;BME280;46415;47.536;19.066;2023-02-28T07:49:20;101659.28;;;2.86;54.23
60583;BME280;46415;47.536;19.066;2023-02-28T07:52:23;101655.91;;;2.91;54.93
60583;BME280;46415;47.536;19.066;2023-02-28T07:55:26;101656.91;;;3.09;53.94
60583;BME280;46415;47.536;19.066;2023-02-28T07:58:30;101667.09;;;3.00;53.69
60583;BME280;46415;47.536;19.066;2023-02-28T08:01:33;101661.03;;;2.94;53.83
60583;BME280;46415;47.536;19.066;2023-02-28T08:04:36;101650.84;;;3.00;54.62
60583;BME280;46415;47.536;19.066;2023-02-28T08:07:38;101653.31;;;2.89;54.85
60583;BME280;46415;47.536;19.066;2023-02-28T08:10:42;101660.28;;;3.04;54.54
60583;BME280;46415;47.536;19.066;2023-02-28T08:13:45;101656.00;;;3.03;53.49
60583;BME280;46415;47.536;19.066;2023-02-28T08:16:48;101657.88;;;3.28;52.93
60583;BME280;46415;47.536;19.066;2023-02-28T08:19:51;101653.78;;;3.56;52.52
60583;BME280;46415;47.536;19.066;2023-02-28T08:22:53;101652.97;;;3.64;51.01
60583;BME280;46415;47.536;19.066;2023-02-28T08:25:56;101664.19;;;3.88;50.08
60583;BME280;46415;47.536;19.066;2023-02-28T08:29:00;101659.91;;;3.84;50.04
60583;BME280;46415;47.536;19.066;2023-02-28T08:32:03;101664.16;;;3.82;49.90
60583;BME280;46415;47.536;19.066;2023-02-28T08:35:07;101656.47;;;3.82;50.74
60583;BME280;46415;47.536;19.066;2023-02-28T08:38:11;101653.13;;;4.05;50.45
60583;BME280;46415;47.536;19.066;2023-02-28T08:41:14;101651.44;;;4.07;50.75
60583;BME280;46415;47.536;19.066;2023-02-28T08:44:17;101647.97;;;3.96;50.64
60583;BME280;46415;47.536;19.066;2023-02-28T08:47:20;101659.88;;;3.78;51.76
60583;BME280;46415;47.536;19.066;2023-02-28T08:50:22;101651.31;;;3.82;50.52
60583;BME280;46415;47.536;19.066;2023-02-28T08:53:25;101655.56;;;3.70;50.72
60583;BME280;46415;47.536;19.066;2023-02-28T08:56:28;101658.16;;;3.74;52.08
60583;BME280;46415;47.536;19.066;2023-02-28T08:59:32;101653.84;;;3.71;51.29
60583;BME280;46415;47.536;19.066;2023-02-28T09:02:35;101652.12;;;3.67;51.41
60583;BME280;46415;47.536;19.066;2023-02-28T09:05:39;101655.75;;;4.16;51.23
60583;BME280;46415;47.536;19.066;2023-02-28T09:08:42;101646.22;;;3.88;50.96
60583;BME280;46415;47.536;19.066;2023-02-28T09:11:45;101652.12;;;3.70;51.31
60583;BME280;46415;47.536;19.066;2023-02-28T09:14:48;101654.72;;;3.68;50.78
60583;BME280;46415;47.536;19.066;2023-02-28T09:17:51;101656.50;;;3.88;48.86
60583;BME280;46415;47.536;19.066;2023-02-28T09:20:54;101657.50;;;4.22;49.06
60583;BME280;46415;47.536;19.066;2023-02-28T09:23:56;101660.09;;;4.41;48.83
60583;BME280;46415;47.536;19.066;2023-02-28T09:26:59;101654.97;;;4.53;49.64
60583;BME280;46415;47.536;19.066;2023-02-28T09:30:07;101656.72;;;4.64;49.33
60583;BME280;46415;47.536;19.066;2023-02-28T09:33:10;101651.56;;;4.79;48.28
60583;BME280;46415;47.536;19.066;2023-02-28T09:36:13;101658.44;;;4.92;48.59
60583;BME280;46415;47.536;19.066;2023-02-28T09:39:16;101664.44;;;4.97;47.57
60583;BME280;46415;47.536;19.066;2023-02-28T09:42:25;101662.72;;;4.93;48.90
60583;BME280;46415;47.536;19.066;2023-02-28T09:45:36;101663.56;;;5.33;48.21
60583;BME280;46415;47.536;19.066;2023-02-28T09:48:44;101655.78;;;5.50;47.47
60583;BME280;46415;47.536;19.066;2023-02-28T09:54:54;101654.00;;;5.82;45.45
60583;BME280;46415;47.536;19.066;2023-02-28T09:57:57;101656.59;;;5.67;46.00
60583;BME280;46415;47.536;19.066;2023-02-28T10:04:48;101651.44;;;5.78;45.23
60583;BME280;46415;47.536;19.066;2023-02-28T10:11:03;101642.66;;;6.23;45.24
60583;BME280;46415;47.536;19.066;2023-02-28T10:14:23;101641.00;;;6.09;45.58
60583;BME280;46415;47.536;19.066;2023-02-28T10:17:37;101645.38;;;5.86;45.60
60583;BME280;46415;47.536;19.066;2023-02-28T10:20:57;101647.84;;;6.20;45.66
60583;BME280;46415;47.536;19.066;2023-02-28T10:24:19;101642.63;;;6.27;44.77
60583;BME280;46415;47.536;19.066;2023-02-28T10:27:24;101637.56;;;6.13;45.45
60583;BME280;46415;47.536;19.066;2023-02-28T10:30:28;101636.75;;;6.04;45.46
60583;BME280;46415;47.536;19.066;2023-02-28T10:33:33;101633.31;;;6.05;44.84
60583;BME280;46415;47.536;19.066;2023-02-28T10:36:37;101633.25;;;6.15;44.73
60583;BME280;46415;47.536;19.066;2023-02-28T10:39:44;101626.53;;;5.77;46.02
60583;BME280;46415;47.536;19.066;2023-02-28T10:43:04;101624.78;;;5.82;45.86
60583;BME280;46415;47.536;19.066;2023-02-28T10:46:13;101626.50;;;5.81;46.40
60583;BME280;46415;47.536;19.066;2023-02-28T10:49:23;101616.94;;;6.09;46.03
60583;BME280;46415;47.536;19.066;2023-02-28T10:52:33;101614.50;;;5.89;46.64
60583;BME280;46415;47.536;19.066;2023-02-28T10:55:38;101608.50;;;5.75;46.82
60583;BME280;46415;47.536;19.066;2023-02-28T10:58:54;101610.19;;;5.88;46.83
60583;BME280;46415;47.536;19.066;2023-02-28T11:01:58;101601.59;;;5.86;46.45
60583;BME280;46415;47.536;19.066;2023-02-28T11:05:01;101607.66;;;5.68;46.66
60583;BME280;46415;47.536;19.066;2023-02-28T11:08:18;101606.84;;;5.56;47.46
60583;BME280;46415;47.536;19.066;2023-02-28T11:11:22;101598.25;;;5.66;47.37
60583;BME280;46415;47.536;19.066;2023-02-28T11:14:29;101596.47;;;5.77;47.83
60583;BME280;46415;47.536;19.066;2023-02-28T11:17:33;101592.97;;;5.96;47.22
60583;BME280;46415;47.536;19.066;2023-02-28T11:20:36;101591.94;;;6.26;46.80
60583;BME280;46415;47.536;19.066;2023-02-28T11:23:40;101598.28;;;6.97;45.58
60583;BME280;46415;47.536;19.066;2023-02-28T11:26:46;101594.84;;;6.92;45.56
60583;BME280;46415;47.536;19.066;2023-02-28T11:29:53;101596.25;;;7.26;44.73
60583;BME280;46415;47.536;19.066;2023-02-28T11:32:56;101596.88;;;7.47;45.24
60583;BME280;46415;47.536;19.066;2023-02-28T11:36:09;101593.56;;;7.37;45.22
60583;BME280;46415;47.536;19.066;2023-02-28T11:39:13;101594.78;;;7.77;44.60
60583;BME280;46415;47.536;19.066;2023-02-28T11:52:56;101583.75;;;8.31;42.95
60583;BME280;46415;47.536;19.066;2023-02-28T11:56:08;101579.81;;;8.02;44.19
60583;BME280;46415;47.536;19.066;2023-02-28T12:06:28;101574.25;;;7.65;43.46
60583;BME280;46415;47.536;19.066;2023-02-28T12:09:59;101573.25;;;7.77;43.22
60583;BME280;46415;47.536;19.066;2023-02-28T12:13:34;101568.72;;;7.93;43.83
60583;BME280;46415;47.536;19.066;2023-02-28T12:29:43;101548.56;;;8.73;42.54
60583;BME280;46415;47.536;19.066;2023-02-28T12:32:56;101539.28;;;8.59;42.62
60583;BME280;46415;47.536;19.066;2023-02-28T12:36:05;101533.22;;;9.10;42.20
60583;BME280;46415;47.536;19.066;2023-02-28T12:39:18;101533.50;;;8.94;42.40
60583;BME280;46415;47.536;19.066;2023-02-28T12:42:41;101535.16;;;8.98;41.75
60583;BME280;46415;47.536;19.066;2023-02-28T12:48:54;101522.75;;;8.70;42.60
60583;BME280;46415;47.536;19.066;2023-02-28T12:52:00;101521.53;;;8.40;44.18
60583;BME280;46415;47.536;19.066;2023-02-28T12:55:12;101525.09;;;8.33;44.27
60583;BME280;46415;47.536;19.066;2023-02-28T13:11:43;101510.34;;;8.38;44.70
60583;BME280;46415;47.536;19.066;2023-02-28T13:14:47;101501.25;;;8.65;44.12
60583;BME280;46415;47.536;19.066;2023-02-28T13:17:53;101518.00;;;8.45;44.37
60583;BME280;46415;47.536;19.066;2023-02-28T13:20:56;101514.53;;;8.45;44.93
60583;BME280;46415;47.536;19.066;2023-02-28T13:24:01;101510.31;;;8.39;45.00
60583;BME280;46415;47.536;19.066;2023-02-28T13:40:33;101506.19;;;8.78;44.44
60583;BME280;46415;47.536;19.066;2023-02-28T13:44:15;101497.66;;;9.18;43.41
60583;BME280;46415;47.536;19.066;2023-02-28T13:47:23;101497.59;;;9.21;43.55
60583;BME280;46415;47.536;19.066;2023-02-28T13:50:37;101486.69;;;9.05;43.34
60583;BME280;46415;47.536;19.066;2023-02-28T13:54:03;101483.22;;;9.48;42.93
60583;BME280;46415;47.536;19.066;2023-02-28T14:07:49;101479.50;;;8.75;43.47
60583;BME280;46415;47.536;19.066;2023-02-28T14:11:08;101470.38;;;8.55;43.88
60583;BME280;46415;47.536;19.066;2023-02-28T14:17:37;101469.91;;;7.75;46.00
60583;BME280;46415;47.536;19.066;2023-02-28T14:20:40;101464.91;;;7.65;46.35
60583;BME280;46415;47.536;19.066;2023-02-28T14:37:49;101460.34;;;7.21;48.11
60583;BME280;46415;47.536;19.066;2023-02-28T14:40:52;101457.66;;;7.28;47.69
60583;BME280;46415;47.536;19.066;2023-02-28T14:43:59;101467.13;;;7.28;48.61
60583;BME280;46415;47.536;19.066;2023-02-28T14:47:03;101462.31;;;6.97;49.28
60583;BME280;46415;47.536;19.066;2023-02-28T14:50:21;101456.34;;;6.92;48.91
60583;BME280;46415;47.536;19.066;2023-02-28T14:53:28;101458.91;;;6.95;49.22
60583;BME280;46415;47.536;19.066;2023-02-28T14:56:36;101460.66;;;6.92;49.72
60583;BME280;46415;47.536;19.066;2023-02-28T14:59:39;101461.44;;;6.98;48.72
60583;BME280;46415;47.536;19.066;2023-02-28T15:02:43;101457.16;;;6.97;49.09
60583;BME280;46415;47.536;19.066;2023-02-28T15:05:54;101460.50;;;7.09;49.32
60583;BME280;46415;47.536;19.066;2023-02-28T15:09:29;101459.59;;;7.10;49.33
60583;BME280;46415;47.536;19.066;2023-02-28T15:12:32;101460.41;;;7.15;49.34
60583;BME280;46415;47.536;19.066;2023-02-28T15:22:12;101475.19;;;7.01;49.85
60583;BME280;46415;47.536;19.066;2023-02-28T15:25:20;101469.75;;;7.23;49.89
60583;BME280;46415;47.536;19.066;2023-02-28T15:28:24;101472.50;;;7.10;50.12
60583;BME280;46415;47.536;19.066;2023-02-28T15:31:32;101472.50;;;7.10;49.92
60583;BME280;46415;47.536;19.066;2023-02-28T15:34:48;101470.00;;;7.04;50.29
60583;BME280;46415;47.536;19.066;2023-02-28T15:40:59;101463.31;;;6.87;50.65
60583;BME280;46415;47.536;19.066;2023-02-28T15:47:32;101458.50;;;6.54;51.78
60583;BME280;46415;47.536;19.066;2023-02-28T15:50:35;101455.19;;;6.41;53.16
60583;BME280;46415;47.536;19.066;2023-02-28T15:53:41;101453.78;;;6.02;54.86
60583;BME280;46415;47.536;19.066;2023-02-28T15:56:50;101456.44;;;5.95;55.40
60583;BME280;46415;47.536;19.066;2023-02-28T15:59:56;101450.47;;;5.90;56.06
60583;BME280;46415;47.536;19.066;2023-02-28T16:02:59;101456.44;;;5.92;56.14
60583;BME280;46415;47.536;19.066;2023-02-28T16:09:24;101449.75;;;5.62;57.83
60583;BME280;46415;47.536;19.066;2023-02-28T16:12:29;101459.25;;;5.51;57.94
60583;BME280;46415;47.536;19.066;2023-02-28T16:15:38;101457.47;;;5.62;58.09
60583;BME280;46415;47.536;19.066;2023-02-28T16:18:44;101468.69;;;5.52;58.58
60583;BME280;46415;47.536;19.066;2023-02-28T16:21:48;101466.16;;;5.44;58.91
60583;BME280;46415;47.536;19.066;2023-02-28T16:24:51;101470.53;;;5.28;59.13
60583;BME280;46415;47.536;19.066;2023-02-28T16:27:54;101467.94;;;5.36;59.28
60583;BME280;46415;47.536;19.066;2023-02-28T16:31:00;101467.97;;;5.28;60.20
60583;BME280;46415;47.536;19.066;2023-02-28T16:34:05;101467.97;;;5.19;61.25
60583;BME280;46415;47.536;19.066;2023-02-28T16:37:14;101471.47;;;5.09;61.00
60583;BME280;46415;47.536;19.066;2023-02-28T16:40:20;101473.19;;;5.03;61.57
60583;BME280;46415;47.536;19.066;2023-02-28T16:43:25;101473.22;;;5.00;61.71
60583;BME280;46415;47.536;19.066;2023-02-28T16:46:34;101478.34;;;5.03;61.84
60583;BME280;46415;47.536;19.066;2023-02-28T16:49:37;101482.69;;;4.88;63.44
60583;BME280;46415;47.536;19.066;2023-02-28T16:52:40;101481.81;;;4.85;63.05
60583;BME280;46415;47.536;19.066;2023-02-28T16:55:43;101490.38;;;4.90;63.67
60583;BME280;46415;47.536;19.066;2023-02-28T16:58:46;101497.28;;;4.79;64.11
60583;BME280;46415;47.536;19.066;2023-02-28T17:01:50;101494.66;;;4.91;64.26
60583;BME280;46415;47.536;19.066;2023-02-28T17:04:54;101489.53;;;4.91;64.13
60583;BME280;46415;47.536;19.066;2023-02-28T17:07:57;101496.41;;;4.81;65.05
60583;BME280;46415;47.536;19.066;2023-02-28T17:11:00;101502.41;;;4.94;64.93
60583;BME280;46415;47.536;19.066;2023-02-28T17:14:04;101503.25;;;4.90;65.59
60583;BME280;46415;47.536;19.066;2023-02-28T17:17:09;101501.53;;;4.86;65.66
60583;BME280;46415;47.536;19.066;2023-02-28T17:20:17;101509.28;;;4.87;65.83
60583;BME280;46415;47.536;19.066;2023-02-28T17:23:21;101504.13;;;4.81;66.76
60583;BME280;46415;47.536;19.066;2023-02-28T17:26:24;101506.66;;;4.89;67.00
60583;BME280;46415;47.536;19.066;2023-02-28T17:29:27;101505.81;;;4.90;67.68
60583;BME280;46415;47.536;19.066;2023-02-28T17:32:30;101498.94;;;4.89;68.24
60583;BME280;46415;47.536;19.066;2023-02-28T17:35:33;101510.97;;;4.84;68.34
60583;BME280;46415;47.536;19.066;2023-02-28T17:38:36;101511.00;;;4.81;69.00
60583;BME280;46415;47.536;19.066;2023-02-28T17:41:40;101511.84;;;4.81;69.20
60583;BME280;46415;47.536;19.066;2023-02-28T17:44:43;101506.69;;;4.92;68.25
60583;BME280;46415;47.536;19.066;2023-02-28T17:47:47;101505.81;;;4.84;68.93
60583;BME280;46415;47.536;19.066;2023-02-28T17:50:51;101511.00;;;4.82;68.91
60583;BME280;46415;47.536;19.066;2023-02-28T17:53:54;101511.87;;;4.75;69.41
60583;BME280;46415;47.536;19.066;2023-02-28T17:56:57;101508.44;;;4.76;69.24
60583;BME280;46415;47.536;19.066;2023-02-28T17:59:59;101513.56;;;4.73;69.61
60583;BME280;46415;47.536;19.066;2023-02-28T18:03:13;101509.28;;;4.74;69.67
60583;BME280;46415;47.536;19.066;2023-02-28T18:06:19;101508.41;;;4.81;69.93
60583;BME280;46415;47.536;19.066;2023-02-28T18:09:23;101514.41;;;4.78;69.76
60583;BME280;46415;47.536;19.066;2023-02-28T18:12:26;101517.00;;;4.81;70.31
60583;BME280;46415;47.536;19.066;2023-02-28T18:15:29;101519.56;;;4.80;69.72
60583;BME280;46415;47.536;19.066;2023-02-28T18:18:32;101519.56;;;4.77;69.55
60583;BME280;46415;47.536;19.066;2023-02-28T18:21:34;101521.28;;;4.75;70.10
60583;BME280;46415;47.536;19.066;2023-02-28T18:24:37;101517.84;;;4.82;69.93
60583;BME280;46415;47.536;19.066;2023-02-28T18:27:40;101523.84;;;4.79;70.24
60583;BME280;46415;47.536;19.066;2023-02-28T18:30:56;101523.00;;;4.68;70.73
60583;BME280;46415;47.536;19.066;2023-02-28T18:33:59;101527.25;;;4.77;70.43